sensor_id;sensor_type;location;lat;lon;timestamp;temperature;humidity
46319;DHT22;32042;50.916;2.926;2023-07-29T11:20:02;23.20;99.90
46319;DHT22;32042;50.916;2.926;2023-07-29T11:22:30;22.90;99.90
46319;DHT22;32042;50.916;2.926;2023-07-29T11:24:55;22.90;99.90
46319;DHT22;32042;50.916;2.926;2023-07-29T11:27:21;22.80;99.90
46319;DHT22;32042;50.916;2.926;2023-07-29T11:29:48;22.60;99.90
46319;DHT22;32042;50.916;2.926;2023-07-29T11:32:15;22.50;99.90
46319;DHT22;32042;50.916;2.926;2023-07-29T11:34:41;22.50;99.90
46319;DHT22;32042;50.916;2.926;2023-07-29T11:37:11;22.50;99.90
46319;DHT22;32042;50.916;2.926;2023-07-29T11:39:41;22.40;99.90
46319;DHT22;32042;50.916;2.926;2023-07-29T11:42:11;22.30;99.90
46319;DHT22;32042;50.916;2.926;2023-07-29T11:44:37;22.30;99.90
46319;DHT22;32042;50.916;2.926;2023-07-29T11:47:09;22.20;99.90
46319;DHT22;32042;50.916;2.926;2023-07-29T11:49:36;22.30;99.90
46319;DHT22;32042;50.916;2.926;2023-07-29T11:52:03;22.10;99.90
46319;DHT22;32042;50.916;2.926;2023-07-29T11:54:29;22.10;99.90
46319;DHT22;32042;50.916;2.926;2023-07-29T11:56:55;22.00;99.90
46319;DHT22;32042;50.916;2.926;2023-07-29T11:59:21;21.80;99.90
46319;DHT22;32042;50.916;2.926;2023-07-29T12:01:47;21.60;99.90
46319;DHT22;32042;50.916;2.926;2023-07-29T12:04:13;21.50;99.90
46319;DHT22;32042;50.916;2.926;2023-07-29T12:06:39;21.30;99.90
46319;DHT22;32042;50.916;2.926;2023-07-29T12:09:05;21.10;99.90
46319;DHT22;32042;50.916;2.926;2023-07-29T12:11:32;21.00;99.90
46319;DHT22;32042;50.916;2.926;2023-07-29T12:14:00;20.80;99.90
46319;DHT22;32042;50.916;2.926;2023-07-29T12:16:25;20.70;99.90
46319;DHT22;32042;50.916;2.926;2023-07-29T12:18:51;20.60;99.90
46319;DHT22;32042;50.916;2.926;2023-07-29T12:21:18;20.50;99.90
46319;DHT22;32042;50.916;2.926;2023-07-29T12:23:44;20.60;99.90
46319;DHT22;32042;50.916;2.926;2023-07-29T12:26:10;20.50;99.90
46319;DHT22;32042;50.916;2.926;2023-07-29T12:28:36;20.40;99.90
46319;DHT22;32042;50.916;2.926;2023-07-29T12:31:01;20.30;99.90
46319;DHT22;32042;50.916;2.926;2023-07-29T12:33:37;20.30;99.90
46319;DHT22;32042;50.916;2.926;2023-07-29T12:36:07;20.20;99.90
46319;DHT22;32042;50.916;2.926;2023-07-29T12:38:33;20.20;99.90
46319;DHT22;32042;50.916;2.926;2023-07-29T12:40:59;20.00;99.90
46319;DHT22;32042;50.916;2.926;2023-07-29T12:43:25;20.00;99.90
46319;DHT22;32042;50.916;2.926;2023-07-29T12:45:51;20.00;99.90
46319;DHT22;32042;50.916;2.926;2023-07-29T12:48:16;20.10;99.90
46319;DHT22;32042;50.916;2.926;2023-07-29T12:50:42;20.10;99.90
46319;DHT22;32042;50.916;2.926;2023-07-29T12:53:09;20.30;99.90
46319;DHT22;32042;50.916;2.926;2023-07-29T12:55:38;20.40;99.90
46319;DHT22;32042;50.916;2.926;2023-07-29T12:58:04;20.60;99.90
46319;DHT22;32042;50.916;2.926;2023-07-29T13:00:30;20.70;99.90
46319;DHT22;32042;50.916;2.926;2023-07-29T13:02:56;20.90;99.90
46319;DHT22;32042;50.916;2.926;2023-07-29T13:05:22;21.00;99.90
46319;DHT22;32042;50.916;2.926;2023-07-29T13:07:48;21.10;99.90
46319;DHT22;32042;50.916;2.926;2023-07-29T13:10:13;21.10;99.90
46319;DHT22;32042;50.916;2.926;2023-07-29T13:12:39;21.20;99.90
46319;DHT22;32042;50.916;2.926;2023-07-29T13:15:06;21.50;99.90
46319;DHT22;32042;50.916;2.926;2023-07-29T13:17:33;21.80;99.90
46319;DHT22;32042;50.916;2.926;2023-07-29T13:19:59;22.10;99.90
46319;DHT22;32042;50.916;2.926;2023-07-29T13:22:24;22.20;99.90
46319;DHT22;32042;50.916;2.926;2023-07-29T13:24:50;22.30;99.90
46319;DHT22;32042;50.916;2.926;2023-07-29T13:27:16;22.20;99.90
46319;DHT22;32042;50.916;2.926;2023-07-29T13:29:42;22.20;99.90
46319;DHT22;32042;50.916;2.926;2023-07-29T13:32:09;22.30;99.90
46319;DHT22;32042;50.916;2.926;2023-07-29T13:34:34;22.40;99.90
46319;DHT22;32042;50.916;2.926;2023-07-29T13:37:00;22.30;99.90
46319;DHT22;32042;50.916;2.926;2023-07-29T13:39:26;22.30;99.90
46319;DHT22;32042;50.916;2.926;2023-07-29T13:41:53;22.20;99.90
46319;DHT22;32042;50.916;2.926;2023-07-29T13:44:19;22.20;99.90
46319;DHT22;32042;50.916;2.926;2023-07-29T13:46:44;22.30;99.90
46319;DHT22;32042;50.916;2.926;2023-07-29T13:49:10;22.50;99.90
46319;DHT22;32042;50.916;2.926;2023-07-29T13:51:36;22.60;99.90
46319;DHT22;32042;50.916;2.926;2023-07-29T13:54:02;22.50;99.90
46319;DHT22;32042;50.916;2.926;2023-07-29T13:56:28;22.50;99.90
46319;DHT22;32042;50.916;2.926;2023-07-29T13:58:53;22.40;99.90
46319;DHT22;32042;50.916;2.926;2023-07-29T14:01:19;22.30;99.90
46319;DHT22;32042;50.916;2.926;2023-07-29T14:03:45;22.20;99.90
46319;DHT22;32042;50.916;2.926;2023-07-29T14:06:10;22.30;99.90
46319;DHT22;32042;50.916;2.926;2023-07-29T14:08:36;22.50;99.90
46319;DHT22;32042;50.916;2.926;2023-07-29T14:11:02;22.60;99.90
46319;DHT22;32042;50.916;2.926;2023-07-29T14:13:27;22.70;99.90
46319;DHT22;32042;50.916;2.926;2023-07-29T14:15:53;22.60;99.90
46319;DHT22;32042;50.916;2.926;2023-07-29T14:18:19;22.50;99.90
46319;DHT22;32042;50.916;2.926;2023-07-29T14:20:45;22.40;99.90
46319;DHT22;32042;50.916;2.926;2023-07-29T14:23:11;22.40;99.90
46319;DHT22;32042;50.916;2.926;2023-07-29T14:25:36;22.40;99.90
46319;DHT22;32042;50.916;2.926;2023-07-29T14:28:02;22.50;99.90
46319;DHT22;32042;50.916;2.926;2023-07-29T14:30:28;22.50;99.90
46319;DHT22;32042;50.916;2.926;2023-07-29T14:32:54;22.50;99.90
46319;DHT22;32042;50.916;2.926;2023-07-29T14:35:19;22.40;99.90
46319;DHT22;32042;50.916;2.926;2023-07-29T14:37:45;22.50;99.90
46319;DHT22;32042;50.916;2.926;2023-07-29T14:40:11;22.50;99.90
46319;DHT22;32042;50.916;2.926;2023-07-29T14:42:36;22.60;99.90
46319;DHT22;32042;50.916;2.926;2023-07-29T14:45:02;22.70;99.90
46319;DHT22;32042;50.916;2.926;2023-07-29T14:47:29;22.70;99.90
46319;DHT22;32042;50.916;2.926;2023-07-29T14:50:01;22.60;99.90
46319;DHT22;32042;50.916;2.926;2023-07-29T14:52:27;22.70;99.90
46319;DHT22;32042;50.916;2.926;2023-07-29T14:54:53;22.70;99.90
46319;DHT22;32042;50.916;2.926;2023-07-29T14:57:19;22.70;99.90
46319;DHT22;32042;50.916;2.926;2023-07-29T14:59:45;22.60;99.90
46319;DHT22;32042;50.916;2.926;2023-07-29T15:02:10;22.60;99.90
46319;DHT22;32042;50.916;2.926;2023-07-29T15:04:36;22.50;99.90
46319;DHT22;32042;50.916;2.926;2023-07-29T15:07:02;22.30;99.90
46319;DHT22;32042;50.916;2.926;2023-07-29T15:09:28;22.40;99.90
46319;DHT22;32042;50.916;2.926;2023-07-29T15:11:54;22.40;99.90
46319;DHT22;32042;50.916;2.926;2023-07-29T15:14:20;22.40;99.90
46319;DHT22;32042;50.916;2.926;2023-07-29T15:16:45;22.40;99.90
46319;DHT22;32042;50.916;2.926;2023-07-29T15:19:11;22.40;99.90
46319;DHT22;32042;50.916;2.926;2023-07-29T15:21:37;22.40;99.90
46319;DHT22;32042;50.916;2.926;2023-07-29T15:24:03;22.40;99.90
46319;DHT22;32042;50.916;2.926;2023-07-29T15:26:29;22.50;99.90
46319;DHT22;32042;50.916;2.926;2023-07-29T15:28:59;22.60;99.90
46319;DHT22;32042;50.916;2.926;2023-07-29T15:31:28;22.70;99.90
46319;DHT22;32042;50.916;2.926;2023-07-29T15:33:54;22.70;99.90
46319;DHT22;32042;50.916;2.926;2023-07-29T15:36:20;22.60;99.90
46319;DHT22;32042;50.916;2.926;2023-07-29T15:38:45;22.50;99.90
46319;DHT22;32042;50.916;2.926;2023-07-29T15:41:11;22.30;99.90
46319;DHT22;32042;50.916;2.926;2023-07-29T15:43:37;22.30;99.90
46319;DHT22;32042;50.916;2.926;2023-07-29T15:46:02;22.30;99.90
46319;DHT22;32042;50.916;2.926;2023-07-29T15:48:28;22.20;99.90
46319;DHT22;32042;50.916;2.926;2023-07-29T15:50:54;22.10;99.90
46319;DHT22;32042;50.916;2.926;2023-07-29T15:53:19;22.20;99.90
46319;DHT22;32042;50.916;2.926;2023-07-29T15:55:45;22.20;99.90
46319;DHT22;32042;50.916;2.926;2023-07-29T15:58:11;22.30;99.90
46319;DHT22;32042;50.916;2.926;2023-07-29T16:00:37;22.20;99.90
46319;DHT22;32042;50.916;2.926;2023-07-29T16:03:02;22.30;99.90
46319;DHT22;32042;50.916;2.926;2023-07-29T16:05:28;22.40;99.90
46319;DHT22;32042;50.916;2.926;2023-07-29T16:07:54;22.30;99.90
46319;DHT22;32042;50.916;2.926;2023-07-29T16:10:23;22.40;99.90
46319;DHT22;32042;50.916;2.926;2023-07-29T16:12:49;22.50;99.90
46319;DHT22;32042;50.916;2.926;2023-07-29T16:15:14;22.40;99.90
46319;DHT22;32042;50.916;2.926;2023-07-29T16:17:40;22.30;99.90
46319;DHT22;32042;50.916;2.926;2023-07-29T16:20:06;22.20;99.90
46319;DHT22;32042;50.916;2.926;2023-07-29T16:22:32;22.20;99.90
46319;DHT22;32042;50.916;2.926;2023-07-29T16:24:58;22.30;99.90
46319;DHT22;32042;50.916;2.926;2023-07-29T16:27:24;22.20;99.90
46319;DHT22;32042;50.916;2.926;2023-07-29T16:29:50;22.10;99.90
46319;DHT22;32042;50.916;2.926;2023-07-29T16:32:17;22.10;99.90
46319;DHT22;32042;50.916;2.926;2023-07-29T16:34:42;22.10;99.90
46319;DHT22;32042;50.916;2.926;2023-07-29T16:37:08;22.10;99.90
46319;DHT22;32042;50.916;2.926;2023-07-29T16:39:35;22.10;99.90
46319;DHT22;32042;50.916;2.926;2023-07-29T16:42:01;22.00;99.90
46319;DHT22;32042;50.916;2.926;2023-07-29T16:44:26;22.10;99.90
46319;DHT22;32042;50.916;2.926;2023-07-29T16:46:52;22.00;99.90
46319;DHT22;32042;50.916;2.926;2023-07-29T16:49:18;22.00;99.90
46319;DHT22;32042;50.916;2.926;2023-07-29T16:51:44;22.00;99.90
46319;DHT22;32042;50.916;2.926;2023-07-29T16:54:09;21.90;99.90
46319;DHT22;32042;50.916;2.926;2023-07-29T16:56:35;21.90;99.90
46319;DHT22;32042;50.916;2.926;2023-07-29T16:59:02;21.80;99.90
46319;DHT22;32042;50.916;2.926;2023-07-29T17:01:28;21.70;99.90
46319;DHT22;32042;50.916;2.926;2023-07-29T17:03:53;21.80;99.90
46319;DHT22;32042;50.916;2.926;2023-07-29T17:06:19;22.00;99.90
46319;DHT22;32042;50.916;2.926;2023-07-29T17:08:46;21.80;99.90
46319;DHT22;32042;50.916;2.926;2023-07-29T17:11:12;21.80;99.90
46319;DHT22;32042;50.916;2.926;2023-07-29T17:13:38;21.70;99.90
46319;DHT22;32042;50.916;2.926;2023-07-29T17:16:04;21.70;99.90
46319;DHT22;32042;50.916;2.926;2023-07-29T17:18:30;21.70;99.90
46319;DHT22;32042;50.916;2.926;2023-07-29T17:20:55;21.80;99.90
46319;DHT22;32042;50.916;2.926;2023-07-29T17:23:21;21.80;99.90
46319;DHT22;32042;50.916;2.926;2023-07-29T17:25:47;21.70;99.90
46319;DHT22;32042;50.916;2.926;2023-07-29T17:28:12;21.60;99.90
46319;DHT22;32042;50.916;2.926;2023-07-29T17:30:38;21.50;99.90
46319;DHT22;32042;50.916;2.926;2023-07-29T17:33:04;21.50;99.90
46319;DHT22;32042;50.916;2.926;2023-07-29T17:35:30;21.50;99.90
46319;DHT22;32042;50.916;2.926;2023-07-29T17:37:56;21.50;99.90
46319;DHT22;32042;50.916;2.926;2023-07-29T17:40:22;21.50;99.90
46319;DHT22;32042;50.916;2.926;2023-07-29T17:42:48;21.50;99.90
46319;DHT22;32042;50.916;2.926;2023-07-29T17:45:13;21.40;99.90
46319;DHT22;32042;50.916;2.926;2023-07-29T17:47:39;21.40;99.90
46319;DHT22;32042;50.916;2.926;2023-07-29T17:50:05;21.30;99.90
46319;DHT22;32042;50.916;2.926;2023-07-29T17:52:31;21.10;99.90
46319;DHT22;32042;50.916;2.926;2023-07-29T17:54:58;20.90;99.90
46319;DHT22;32042;50.916;2.926;2023-07-29T17:57:24;20.80;99.90
46319;DHT22;32042;50.916;2.926;2023-07-29T17:59:52;20.70;99.90
46319;DHT22;32042;50.916;2.926;2023-07-29T18:02:17;20.70;99.90
46319;DHT22;32042;50.916;2.926;2023-07-29T18:04:43;20.70;99.90
46319;DHT22;32042;50.916;2.926;2023-07-29T18:07:12;20.60;99.90
46319;DHT22;32042;50.916;2.926;2023-07-29T18:09:38;20.50;99.90
46319;DHT22;32042;50.916;2.926;2023-07-29T18:12:04;20.40;99.90
46319;DHT22;32042;50.916;2.926;2023-07-29T18:14:30;20.30;99.90
46319;DHT22;32042;50.916;2.926;2023-07-29T18:16:56;20.20;99.90
46319;DHT22;32042;50.916;2.926;2023-07-29T18:19:21;20.20;99.90
46319;DHT22;32042;50.916;2.926;2023-07-29T18:21:47;20.10;99.90
46319;DHT22;32042;50.916;2.926;2023-07-29T18:24:13;20.10;99.90
46319;DHT22;32042;50.916;2.926;2023-07-29T18:26:39;20.00;99.90
46319;DHT22;32042;50.916;2.926;2023-07-29T18:29:05;20.00;99.90
46319;DHT22;32042;50.916;2.926;2023-07-29T18:31:30;19.90;99.90
46319;DHT22;32042;50.916;2.926;2023-07-29T18:33:58;19.90;99.90
46319;DHT22;32042;50.916;2.926;2023-07-29T18:36:23;19.90;99.90
46319;DHT22;32042;50.916;2.926;2023-07-29T18:38:49;19.80;99.90
46319;DHT22;32042;50.916;2.926;2023-07-29T18:41:15;19.70;99.90
46319;DHT22;32042;50.916;2.926;2023-07-29T18:43:41;19.70;99.90
46319;DHT22;32042;50.916;2.926;2023-07-29T18:46:06;19.60;99.90
46319;DHT22;32042;50.916;2.926;2023-07-29T18:48:33;19.60;99.90
46319;DHT22;32042;50.916;2.926;2023-07-29T18:50:59;19.60;99.90
46319;DHT22;32042;50.916;2.926;2023-07-29T18:53:26;19.60;99.90
46319;DHT22;32042;50.916;2.926;2023-07-29T18:55:51;19.60;99.90
46319;DHT22;32042;50.916;2.926;2023-07-29T18:58:17;19.50;99.90
46319;DHT22;32042;50.916;2.926;2023-07-29T19:00:44;19.50;99.90
46319;DHT22;32042;50.916;2.926;2023-07-29T19:03:11;19.50;99.90
46319;DHT22;32042;50.916;2.926;2023-07-29T19:05:37;19.40;99.90
46319;DHT22;32042;50.916;2.926;2023-07-29T19:08:03;19.40;99.90
46319;DHT22;32042;50.916;2.926;2023-07-29T19:10:29;19.40;99.90
46319;DHT22;32042;50.916;2.926;2023-07-29T19:12:55;19.30;99.90
46319;DHT22;32042;50.916;2.926;2023-07-29T19:15:22;19.20;99.90
46319;DHT22;32042;50.916;2.926;2023-07-29T19:17:48;19.20;99.90
46319;DHT22;32042;50.916;2.926;2023-07-29T19:20:14;19.10;99.90
46319;DHT22;32042;50.916;2.926;2023-07-29T19:22:41;19.10;99.90
46319;DHT22;32042;50.916;2.926;2023-07-29T19:25:07;19.10;99.90
46319;DHT22;32042;50.916;2.926;2023-07-29T19:27:36;19.00;99.90
46319;DHT22;32042;50.916;2.926;2023-07-29T19:30:02;18.80;99.90
46319;DHT22;32042;50.916;2.926;2023-07-29T19:32:28;18.80;99.90
46319;DHT22;32042;50.916;2.926;2023-07-29T19:34:54;18.80;99.90
46319;DHT22;32042;50.916;2.926;2023-07-29T19:37:25;18.70;99.90
46319;DHT22;32042;50.916;2.926;2023-07-29T19:39:51;18.60;99.90
46319;DHT22;32042;50.916;2.926;2023-07-29T19:42:17;18.60;99.90
46319;DHT22;32042;50.916;2.926;2023-07-29T19:44:43;18.60;99.90
46319;DHT22;32042;50.916;2.926;2023-07-29T19:47:09;18.60;99.90
46319;DHT22;32042;50.916;2.926;2023-07-29T19:49:36;18.50;99.90
46319;DHT22;32042;50.916;2.926;2023-07-29T19:52:01;18.40;99.90
46319;DHT22;32042;50.916;2.926;2023-07-29T19:54:28;18.40;99.90
46319;DHT22;32042;50.916;2.926;2023-07-29T19:56:53;18.30;99.90
46319;DHT22;32042;50.916;2.926;2023-07-29T19:59:19;18.20;99.90
46319;DHT22;32042;50.916;2.926;2023-07-29T20:01:45;18.20;99.90
46319;DHT22;32042;50.916;2.926;2023-07-29T20:04:11;18.20;99.90
46319;DHT22;32042;50.916;2.926;2023-07-29T20:06:37;18.10;99.90
46319;DHT22;32042;50.916;2.926;2023-07-29T20:09:04;18.10;99.90
46319;DHT22;32042;50.916;2.926;2023-07-29T20:11:30;18.00;99.90
46319;DHT22;32042;50.916;2.926;2023-07-29T20:13:55;18.00;99.90
46319;DHT22;32042;50.916;2.926;2023-07-29T20:16:21;18.00;99.90
46319;DHT22;32042;50.916;2.926;2023-07-29T20:18:49;17.90;99.90
46319;DHT22;32042;50.916;2.926;2023-07-29T20:21:15;17.90;99.90
46319;DHT22;32042;50.916;2.926;2023-07-29T20:23:41;17.80;99.90
46319;DHT22;32042;50.916;2.926;2023-07-29T20:26:07;17.80;99.90
46319;DHT22;32042;50.916;2.926;2023-07-29T20:28:33;17.80;99.90
46319;DHT22;32042;50.916;2.926;2023-07-29T20:30:59;17.70;99.90
46319;DHT22;32042;50.916;2.926;2023-07-29T20:33:26;17.70;99.90
46319;DHT22;32042;50.916;2.926;2023-07-29T20:35:59;17.60;99.90
46319;DHT22;32042;50.916;2.926;2023-07-29T20:38:26;17.60;99.90
46319;DHT22;32042;50.916;2.926;2023-07-29T20:40:53;17.50;99.90
46319;DHT22;32042;50.916;2.926;2023-07-29T20:43:19;17.50;99.90
46319;DHT22;32042;50.916;2.926;2023-07-29T20:45:46;17.50;99.90
46319;DHT22;32042;50.916;2.926;2023-07-29T20:48:12;17.40;99.90
46319;DHT22;32042;50.916;2.926;2023-07-29T20:50:42;17.30;99.90
46319;DHT22;32042;50.916;2.926;2023-07-29T20:53:09;17.20;99.90
46319;DHT22;32042;50.916;2.926;2023-07-29T20:55:35;17.10;99.90
46319;DHT22;32042;50.916;2.926;2023-07-29T20:58:02;17.10;99.90
46319;DHT22;32042;50.916;2.926;2023-07-29T21:00:28;17.00;99.90
46319;DHT22;32042;50.916;2.926;2023-07-29T21:02:56;16.90;99.90
46319;DHT22;32042;50.916;2.926;2023-07-29T21:05:24;16.90;99.90
46319;DHT22;32042;50.916;2.926;2023-07-29T21:07:51;16.80;99.90
46319;DHT22;32042;50.916;2.926;2023-07-29T21:10:17;16.80;99.90
46319;DHT22;32042;50.916;2.926;2023-07-29T21:12:43;16.80;99.90
46319;DHT22;32042;50.916;2.926;2023-07-29T21:15:09;16.70;99.90
46319;DHT22;32042;50.916;2.926;2023-07-29T21:17:36;16.70;99.90
46319;DHT22;32042;50.916;2.926;2023-07-29T21:22:29;16.60;99.90
46319;DHT22;32042;50.916;2.926;2023-07-29T21:24:54;16.60;99.90
46319;DHT22;32042;50.916;2.926;2023-07-29T21:27:20;16.60;99.90
46319;DHT22;32042;50.916;2.926;2023-07-29T21:29:46;16.50;99.90
46319;DHT22;32042;50.916;2.926;2023-07-29T21:32:12;16.50;99.90
46319;DHT22;32042;50.916;2.926;2023-07-29T21:34:38;16.50;99.90
46319;DHT22;32042;50.916;2.926;2023-07-29T21:37:04;16.40;99.90
46319;DHT22;32042;50.916;2.926;2023-07-29T21:39:31;16.40;99.90
46319;DHT22;32042;50.916;2.926;2023-07-29T21:41:57;16.40;99.90
46319;DHT22;32042;50.916;2.926;2023-07-29T21:44:23;16.40;99.90
46319;DHT22;32042;50.916;2.926;2023-07-29T21:46:48;16.30;99.90
46319;DHT22;32042;50.916;2.926;2023-07-29T21:49:14;16.30;99.90
46319;DHT22;32042;50.916;2.926;2023-07-29T21:51:40;16.30;99.90
46319;DHT22;32042;50.916;2.926;2023-07-29T21:54:05;16.20;99.90
46319;DHT22;32042;50.916;2.926;2023-07-29T21:56:31;16.20;99.90
46319;DHT22;32042;50.916;2.926;2023-07-29T21:58:57;16.20;99.90
46319;DHT22;32042;50.916;2.926;2023-07-29T22:01:23;16.20;99.90
46319;DHT22;32042;50.916;2.926;2023-07-29T22:03:49;16.10;99.90
46319;DHT22;32042;50.916;2.926;2023-07-29T22:06:15;16.10;99.90
46319;DHT22;32042;50.916;2.926;2023-07-29T22:08:40;16.10;99.90
46319;DHT22;32042;50.916;2.926;2023-07-29T22:11:07;16.10;99.90
46319;DHT22;32042;50.916;2.926;2023-07-29T22:13:34;16.10;99.90
46319;DHT22;32042;50.916;2.926;2023-07-29T22:16:01;16.10;99.90
46319;DHT22;32042;50.916;2.926;2023-07-29T22:18:27;16.00;99.90
46319;DHT22;32042;50.916;2.926;2023-07-29T22:20:58;16.00;99.90
46319;DHT22;32042;50.916;2.926;2023-07-29T22:23:24;16.00;99.90
46319;DHT22;32042;50.916;2.926;2023-07-29T22:26:03;15.90;99.90
46319;DHT22;32042;50.916;2.926;2023-07-29T22:28:30;15.90;99.90
46319;DHT22;32042;50.916;2.926;2023-07-29T22:30:57;15.90;99.90
46319;DHT22;32042;50.916;2.926;2023-07-29T22:33:30;15.90;99.90
46319;DHT22;32042;50.916;2.926;2023-07-29T22:35:58;15.90;99.90
46319;DHT22;32042;50.916;2.926;2023-07-29T22:38:25;15.80;99.90
46319;DHT22;32042;50.916;2.926;2023-07-29T22:40:52;15.80;99.90
46319;DHT22;32042;50.916;2.926;2023-07-29T22:43:22;15.80;99.90
46319;DHT22;32042;50.916;2.926;2023-07-29T22:45:54;15.80;99.90
46319;DHT22;32042;50.916;2.926;2023-07-29T22:48:21;15.80;99.90
46319;DHT22;32042;50.916;2.926;2023-07-29T22:50:47;15.70;99.90
46319;DHT22;32042;50.916;2.926;2023-07-29T22:53:13;15.70;99.90
46319;DHT22;32042;50.916;2.926;2023-07-29T22:55:41;15.70;99.90
46319;DHT22;32042;50.916;2.926;2023-07-29T22:58:08;15.70;99.90
46319;DHT22;32042;50.916;2.926;2023-07-29T23:00:34;15.60;99.90
46319;DHT22;32042;50.916;2.926;2023-07-29T23:03:00;15.60;99.90
46319;DHT22;32042;50.916;2.926;2023-07-29T23:05:25;15.60;99.90
46319;DHT22;32042;50.916;2.926;2023-07-29T23:07:51;15.60;99.90
46319;DHT22;32042;50.916;2.926;2023-07-29T23:10:17;15.60;99.90
46319;DHT22;32042;50.916;2.926;2023-07-29T23:12:42;15.60;99.90
46319;DHT22;32042;50.916;2.926;2023-07-29T23:15:08;15.50;99.90
46319;DHT22;32042;50.916;2.926;2023-07-29T23:17:34;15.50;99.90
46319;DHT22;32042;50.916;2.926;2023-07-29T23:19:59;15.50;99.90
46319;DHT22;32042;50.916;2.926;2023-07-29T23:22:25;15.50;99.90
46319;DHT22;32042;50.916;2.926;2023-07-29T23:24:51;15.50;99.90
46319;DHT22;32042;50.916;2.926;2023-07-29T23:27:17;15.50;99.90
46319;DHT22;32042;50.916;2.926;2023-07-29T23:29:42;15.50;99.90
46319;DHT22;32042;50.916;2.926;2023-07-29T23:32:08;15.40;99.90
46319;DHT22;32042;50.916;2.926;2023-07-29T23:34:34;15.40;99.90
46319;DHT22;32042;50.916;2.926;2023-07-29T23:36:59;15.40;99.90
46319;DHT22;32042;50.916;2.926;2023-07-29T23:39:25;15.40;99.90
46319;DHT22;32042;50.916;2.926;2023-07-29T23:41:51;15.30;99.90
46319;DHT22;32042;50.916;2.926;2023-07-29T23:44:17;15.30;99.90
46319;DHT22;32042;50.916;2.926;2023-07-29T23:46:43;15.30;99.90
46319;DHT22;32042;50.916;2.926;2023-07-29T23:49:08;15.30;99.90
46319;DHT22;32042;50.916;2.926;2023-07-29T23:51:34;15.30;99.90
46319;DHT22;32042;50.916;2.926;2023-07-29T23:54:00;15.30;99.90
46319;DHT22;32042;50.916;2.926;2023-07-29T23:56:25;15.30;99.90
46319;DHT22;32042;50.916;2.926;2023-07-29T23:58:51;15.30;99.90
